Neptune Pioneer — 3EKH6 — position and weather

sailwx.info

Track history (hours):
 
Tides and Currents Weather Stations Pressure Air Temp Water Temp Dewpoint Dewpoint Depression Visibility Wind Speed Wind Dir Waves Ship Positions

Neptune Pioneer

Last reported at 2017-Nov-20 00:29 UTC. Time now 2017-Nov-22 16:47 UTC.
Position N 22°39' E 120°12'.

Length 190 m; draft 12.7 m.

Type: Cargo ship. MMSI: 372723000.

Date/timePositionNaut miles runAvg speedWind from/ knotsBaromVisibWave heightAir tempDewpointWater temp
2017-Nov-20 00:29N 22°39' E 120°12'0 0.2
2017-Nov-19 23:59N 22°39' E 120°12'0 0.0
2017-Nov-19 23:29N 22°39' E 120°12'0 0.1
2017-Nov-19 22:59N 22°39' E 120°12'0 0.1
2017-Nov-19 22:26N 22°39' E 120°13'0 0.1
2017-Nov-19 21:59N 22°39' E 120°12'0 0.0
2017-Nov-19 21:29N 22°39' E 120°12'0 0.0
2017-Nov-19 20:59N 22°39' E 120°12'0 0.0
2017-Nov-19 20:29N 22°39' E 120°12'0 0.0
2017-Nov-19 19:56N 22°39' E 120°12'0 0.0
2017-Nov-19 19:29N 22°39' E 120°12'0 0.0
2017-Nov-19 18:59N 22°39' E 120°12'0 0.0
2017-Nov-19 18:29N 22°39' E 120°12'0 0.1
2017-Nov-19 17:59N 22°39' E 120°12'0 0.0
2017-Nov-19 17:29N 22°39' E 120°12'0 0.0
2017-Nov-19 16:59N 22°39' E 120°12'0 0.0
2017-Nov-19 16:29N 22°39' E 120°12'0 0.0
2017-Nov-19 15:59N 22°39' E 120°12'0 0.1
2017-Nov-19 15:29N 22°39' E 120°12'0 0.1
2017-Nov-19 14:59N 22°39' E 120°13'0 0.0
2017-Nov-19 14:29N 22°39' E 120°13'0 0.1
2017-Nov-19 13:56N 22°39' E 120°13'0 0.1
2017-Nov-19 13:29N 22°39' E 120°13'0 0.0
2017-Nov-19 12:59N 22°39' E 120°13'0 0.0
2017-Nov-19 12:26N 22°39' E 120°13'0 0.1
2017-Nov-19 11:59N 22°39' E 120°13'0 0.0
2017-Nov-19 11:29N 22°39' E 120°13'0 0.1
2017-Nov-19 10:59N 22°39' E 120°13'0 0.0
2017-Nov-19 10:29N 22°39' E 120°13'0 0.0
2017-Nov-19 09:59N 22°39' E 120°13'0 0.0
2017-Nov-19 09:26N 22°39' E 120°13'0 0.0
2017-Nov-19 08:59N 22°39' E 120°13'0 0.0
2017-Nov-19 08:29N 22°39' E 120°13'0 0.0
2017-Nov-19 07:59N 22°39' E 120°13'0 0.0
2017-Nov-19 07:29N 22°39' E 120°13'0 0.0
2017-Nov-19 06:59N 22°39' E 120°13'0 0.0
2017-Nov-19 06:29N 22°39' E 120°13'0 0.0
2017-Nov-19 05:56N 22°39' E 120°13'0 0.0
2017-Nov-19 05:29N 22°39' E 120°13'0 0.0
2017-Nov-19 04:59N 22°39' E 120°13'0 0.0
2017-Nov-19 04:29N 22°39' E 120°13'0 0.0
2017-Nov-19 04:00N 22°39' E 120°13'0 0.0
2017-Nov-19 03:30N 22°39' E 120°13'0 0.2
2017-Nov-19 03:00N 22°39' E 120°12'1 1.2
2017-Nov-19 02:31N 22°39' E 120°13'0 0.2
2017-Nov-19 01:57N 22°38' E 120°13'0 0.1
2017-Nov-19 01:30N 22°38' E 120°13'0 0.0
2017-Nov-19 01:00N 22°38' E 120°13'1 1.3
2017-Nov-19 00:30N 22°39' E 120°12'2 4.4
2017-Nov-19 00:00N 22°40' E 120°11'4 7.4
2017-Nov-18 23:30N 22°43' E 120°08'5 9.1
2017-Nov-18 23:00N 22°46' E 120°04'3 6.7
2017-Nov-18 22:29N 22°48' E 120°01'  
Track history (hours):
 
Tides and Currents Weather Stations Pressure Air Temp Water Temp Dewpoint Dewpoint Depression Visibility Wind Speed Wind Dir Waves Ship Positions

Neptune Pioneer

Last reported at 2017-Nov-20 00:29 UTC. Time now 2017-Nov-22 16:47 UTC.
Position N 22°39' E 120°12'.

Length 190 m; draft 12.7 m.

Type: Cargo ship. MMSI: 372723000.

Date/timePositionNaut miles runAvg speedWind from/ knotsBaromVisibWave heightAir tempDewpointWater temp
2017-Nov-20 00:29N 22°39' E 120°12'0 0.2
2017-Nov-19 23:59N 22°39' E 120°12'0 0.0
2017-Nov-19 23:29N 22°39' E 120°12'0 0.1
2017-Nov-19 22:59N 22°39' E 120°12'0 0.1
2017-Nov-19 22:26N 22°39' E 120°13'0 0.1
2017-Nov-19 21:59N 22°39' E 120°12'0 0.0
2017-Nov-19 21:29N 22°39' E 120°12'0 0.0
2017-Nov-19 20:59N 22°39' E 120°12'0 0.0
2017-Nov-19 20:29N 22°39' E 120°12'0 0.0
2017-Nov-19 19:56N 22°39' E 120°12'0 0.0
2017-Nov-19 19:29N 22°39' E 120°12'0 0.0
2017-Nov-19 18:59N 22°39' E 120°12'0 0.0
2017-Nov-19 18:29N 22°39' E 120°12'0 0.1
2017-Nov-19 17:59N 22°39' E 120°12'0 0.0
2017-Nov-19 17:29N 22°39' E 120°12'0 0.0
2017-Nov-19 16:59N 22°39' E 120°12'0 0.0
2017-Nov-19 16:29N 22°39' E 120°12'0 0.0
2017-Nov-19 15:59N 22°39' E 120°12'0 0.1
2017-Nov-19 15:29N 22°39' E 120°12'0 0.1
2017-Nov-19 14:59N 22°39' E 120°13'0 0.0
2017-Nov-19 14:29N 22°39' E 120°13'0 0.1
2017-Nov-19 13:56N 22°39' E 120°13'0 0.1
2017-Nov-19 13:29N 22°39' E 120°13'0 0.0
2017-Nov-19 12:59N 22°39' E 120°13'0 0.0
2017-Nov-19 12:26N 22°39' E 120°13'0 0.1
2017-Nov-19 11:59N 22°39' E 120°13'0 0.0
2017-Nov-19 11:29N 22°39' E 120°13'0 0.1
2017-Nov-19 10:59N 22°39' E 120°13'0 0.0
2017-Nov-19 10:29N 22°39' E 120°13'0 0.0
2017-Nov-19 09:59N 22°39' E 120°13'0 0.0
2017-Nov-19 09:26N 22°39' E 120°13'0 0.0
2017-Nov-19 08:59N 22°39' E 120°13'0 0.0
2017-Nov-19 08:29N 22°39' E 120°13'0 0.0
2017-Nov-19 07:59N 22°39' E 120°13'0 0.0
2017-Nov-19 07:29N 22°39' E 120°13'0 0.0
2017-Nov-19 06:59N 22°39' E 120°13'0 0.0
2017-Nov-19 06:29N 22°39' E 120°13'0 0.0
2017-Nov-19 05:56N 22°39' E 120°13'0 0.0
2017-Nov-19 05:29N 22°39' E 120°13'0 0.0
2017-Nov-19 04:59N 22°39' E 120°13'0 0.0
2017-Nov-19 04:29N 22°39' E 120°13'0 0.0
2017-Nov-19 04:00N 22°39' E 120°13'0 0.0
2017-Nov-19 03:30N 22°39' E 120°13'0 0.2
2017-Nov-19 03:00N 22°39' E 120°12'1 1.2
2017-Nov-19 02:31N 22°39' E 120°13'0 0.2
2017-Nov-19 01:57N 22°38' E 120°13'0 0.1
2017-Nov-19 01:30N 22°38' E 120°13'0 0.0
2017-Nov-19 01:00N 22°38' E 120°13'1 1.3
2017-Nov-19 00:30N 22°39' E 120°12'2 4.4
2017-Nov-19 00:00N 22°40' E 120°11'4 7.4
2017-Nov-18 23:30N 22°43' E 120°08'5 9.1
2017-Nov-18 23:00N 22°46' E 120°04'3 6.7
2017-Nov-18 22:29N 22°48' E 120°01'  

Dump ship's entire track history